Time;durP1;ratioP1;P1;durP2;ratioP2;P2;SDS_P1;SDS_P2;PMS_P1;PMS_P2;Temp;Humidity;BMP_temperature;BMP_pressure;BME280_temperature;BME280_humidity;BME280_pressure;Samples;Min_cycle;Max_cycle;Signal;HPM_P1;HPM_P2
2023/03/29 00:00:58;;;;;;;;;;;;;;;;;;137713;1272;22571;-78
2023/03/29 00:04:01;;;;;;;;;;;;;;;;;;137198;1272;22558;-79
2023/03/29 00:07:03;;;;;;;;;;;;;;;;;;137014;1272;22518;-79
2023/03/29 00:10:04;;;;;;;;;;;;;;;;;;137445;1266;24219;-78
2023/03/29 00:13:05;;;;;;;;;;;;;;;;;;137277;1266;22640;-78
2023/03/29 00:16:06;;;;;;;;;;;;;;;;;;137037;1272;23208;-78
2023/03/29 00:19:07;;;;;;;;;;;;;;;;;;137143;1265;22568;-79
2023/03/29 00:22:08;;;;;;;;;;;;;;;;;;137699;1272;22826;-79
2023/03/29 00:25:09;;;;;;;;;;;;;;;;;;137251;1272;23041;-79
2023/03/29 00:28:12;;;;;;;;;;;;;;;;;;137160;1272;22528;-79
2023/03/29 00:31:13;;;;;;;;;;;;;;;;;;137696;1272;22574;-79
2023/03/29 00:34:15;;;;;;;;;;;;;;;;;;137209;1272;22508;-80
2023/03/29 00:37:16;;;;;;;;;;;;;;;;;;137202;1272;22531;-79
2023/03/29 00:40:17;;;;;;;;;;;;;;;;;;137378;1272;23186;-81
2023/03/29 00:43:18;;;;;;;;;;;;;;;;;;137286;1272;22844;-79
2023/03/29 00:46:19;;;;;;;;;;;;;;;;;;137159;1272;22507;-80
2023/03/29 00:49:20;;;;;;;;;;;;;;;;;;137193;1272;22549;-81
2023/03/29 00:52:22;;;;;;;;;;;;;;;;;;137613;1272;22983;-80
2023/03/29 00:55:23;;;;;;;;;;;;;;;;;;137046;1272;22964;-80
2023/03/29 00:58:24;;;;;;;;;;;;;;;;;;137042;1272;22877;-80
2023/03/29 01:01:27;;;;;;;;;;;;;;;;;;137602;1272;22547;-81
2023/03/29 01:04:28;;;;;;;;;;;;;;;;;;136972;1272;22607;-79
2023/03/29 01:07:29;;;;;;;;;;;;;;;;;;137083;1272;22525;-79
2023/03/29 01:10:31;;;;;;;;;;;;;;;;;;137438;1272;22526;-86
2023/03/29 01:13:32;;;;;;;;;;;;;;;;;;137135;1272;22587;-85
2023/03/29 01:16:33;;;;;;;;;;;;;;;;;;137009;1272;22541;-86
2023/03/29 01:19:34;;;;;;;;;;;;;;;;;;137508;1272;22533;-85
2023/03/29 01:22:38;;;;;;;;;;;;;;;;;;137411;1272;22487;-85
2023/03/29 01:25:39;;;;;;;;;;;;;;;;;;136902;1272;22575;-85
2023/03/29 01:28:40;;;;;;;;;;;;;;;;;;137121;1272;24899;-84
2023/03/29 01:31:41;;;;;;;;;;;;;;;;;;137651;1272;22523;-84
2023/03/29 01:34:42;;;;;;;;;;;;;;;;;;137137;1272;22518;-83
2023/03/29 01:37:44;;;;;;;;;;;;;;;;;;137072;1272;22565;-84
2023/03/29 01:40:45;;;;;;;;;;;;;;;;;;137719;1272;22515;-84
2023/03/29 01:43:46;;;;;;;;;;;;;;;;;;137016;1272;22533;-84
2023/03/29 01:46:47;;;;;;;;;;;;;;;;;;137057;1272;22506;-84
2023/03/29 01:49:49;;;;;;;;;;;;;;;;;;137485;1272;22511;-86
2023/03/29 01:52:50;;;;;;;;;;;;;;;;;;137246;1272;23021;-85
2023/03/29 01:55:51;;;;;;;;;;;;;;;;;;137150;1272;23376;-85
2023/03/29 01:58:52;;;;;;;;;;;;;;;;;;137425;1272;22514;-85
2023/03/29 02:01:53;;;;;;;;;;;;;;;;;;137467;1272;22533;-85
2023/03/29 02:04:54;;;;;;;;;;;;;;;;;;137105;1272;22534;-85
2023/03/29 02:07:56;;;;;;;;;;;;;;;;;;137017;1272;22944;-86
2023/03/29 02:10:57;;;;;;;;;;;;;;;;;;137742;1272;22996;-84
2023/03/29 02:13:58;;;;;;;;;;;;;;;;;;137086;1268;22962;-83
2023/03/29 02:16:59;;;;;;;;;;;;;;;;;;137022;1272;22993;-84
2023/03/29 02:20:00;;;;;;;;;;;;;;;;;;137333;1272;22505;-84
2023/03/29 02:23:02;;;;;;;;;;;;;;;;;;137032;1272;22533;-84
2023/03/29 02:26:05;;;;;;;;;;;;;;;;;;137073;1272;22526;-85
2023/03/29 02:29:06;;;;;;;;;;;;;;;;;;137620;1272;22537;-86
2023/03/29 02:32:07;;;;;;;;;;;;;;;;;;137105;1272;22514;-82
2023/03/29 02:35:11;;;;;;;;;;;;;;;;;;137100;1272;22488;-80
2023/03/29 02:38:13;;;;;;;;;;;;;;;;;;137614;1272;22964;-80
2023/03/29 02:41:15;;;;;;;;;;;;;;;;;;137303;1272;22530;-86
2023/03/29 02:44:16;;;;;;;;;;;;;;;;;;137226;1260;22506;-83
2023/03/29 02:47:17;;;;;;;;;;;;;;;;;;137153;1272;22525;-85
2023/03/29 02:50:18;;;;;;;;;;;;;;;;;;137600;1272;22538;-86
2023/03/29 02:53:19;;;;;;;;;;;;;;;;;;137219;1272;22530;-86
2023/03/29 02:56:20;;;;;;;;;;;;;;;;;;137210;1272;22605;-83
2023/03/29 02:59:21;;;;;;;;;;;;;;;;;;137769;1272;22813;-83
2023/03/29 03:02:24;;;;;;;;;;;;;;;;;;137211;1272;22524;-83
2023/03/29 03:05:25;;;;;;;;;;;;;;;;;;137171;1272;22690;-83
2023/03/29 03:08:26;;;;;;;;;;;;;;;;;;137482;1272;22518;-87
2023/03/29 03:11:27;;;;;;;;;;;;;;;;;;137128;1272;22534;-85
2023/03/29 03:14:28;;;;;;;;;;;;;;;;;;136954;1272;22487;-84
2023/03/29 03:17:32;;;;;;;;;;;;;;;;;;137461;1272;22524;-86
2023/03/29 03:20:33;;;;;;;;;;;;;;;;;;137217;1272;22625;-86
2023/03/29 03:23:36;;;;;;;;;;;;;;;;;;136979;1272;22575;-86
2023/03/29 03:26:37;;;;;;;;;;;;;;;;;;137147;1272;22550;-86
2023/03/29 03:29:40;;;;;;;;;;;;;;;;;;137455;1272;22562;-86
2023/03/29 03:32:43;;;;;;;;;;;;;;;;;;136764;1272;22503;-85
2023/03/29 03:35:46;;;;;;;;;;;;;;;;;;137084;1272;22523;-86
2023/03/29 03:38:47;;;;;;;;;;;;;;;;;;137634;1272;22526;-85
2023/03/29 03:41:49;;;;;;;;;;;;;;;;;;137066;1272;22509;-85
2023/03/29 03:44:50;;;;;;;;;;;;;;;;;;137142;1272;23282;-85
2023/03/29 03:47:51;;;;;;;;;;;;;;;;;;137686;1272;23037;-86
2023/03/29 03:50:52;;;;;;;;;;;;;;;;;;136912;1272;24180;-84
2023/03/29 03:53:53;;;;;;;;;;;;;;;;;;137322;1272;22541;-83
2023/03/29 03:56:55;;;;;;;;;;;;;;;;;;137665;1272;23177;-81
2023/03/29 03:59:56;;;;;;;;;;;;;;;;;;137706;1272;22337;-80
2023/03/29 04:02:57;;;;;;;;;;;;;;;;;;137582;1272;22534;-81
2023/03/29 04:05:58;;;;;;;;;;;;;;;;;;137509;1272;22660;-80
2023/03/29 04:08:59;;;;;;;;;;;;;;;;;;137290;1272;22499;-81
2023/03/29 04:12:03;;;;;;;;;;;;;;;;;;137251;1272;22977;-78
2023/03/29 04:15:04;;;;;;;;;;;;;;;;;;136680;1272;22551;-79
2023/03/29 04:18:06;;;;;;;;;;;;;;;;;;137448;1272;22489;-80
2023/03/29 04:21:07;;;;;;;;;;;;;;;;;;137270;1272;22919;-80
2023/03/29 04:24:08;;;;;;;;;;;;;;;;;;137719;1272;22288;-79
2023/03/29 04:27:11;;;;;;;;;;;;;;;;;;137695;1272;22371;-80
2023/03/29 04:30:13;;;;;;;;;;;;;;;;;;137233;1272;22528;-80
2023/03/29 04:33:14;;;;;;;;;;;;;;;;;;136993;1272;22541;-80
2023/03/29 04:36:15;;;;;;;;;;;;;;;;;;137683;1272;22515;-80
2023/03/29 04:39:17;;;;;;;;;;;;;;;;;;137157;1272;22539;-80
2023/03/29 04:42:18;;;;;;;;;;;;;;;;;;137105;1272;22468;-80
2023/03/29 04:45:19;;;;;;;;;;;;;;;;;;137761;1272;22285;-80
2023/03/29 04:48:21;;;;;;;;;;;;;;;;;;137620;1272;22502;-79
2023/03/29 04:51:24;;;;;;;;;;;;;;;;;;137673;1272;22349;-79
2023/03/29 04:54:26;;;;;;;;;;;;;;;;;;137649;1272;22308;-80
2023/03/29 04:57:28;;;;;;;;;;;;;;;;;;137598;1272;22379;-80
2023/03/29 05:00:30;;;;;;;;;;;;;;;;;;137290;1272;22500;-80
2023/03/29 05:03:31;;;;;;;;;;;;;;;;;;137299;1272;22527;-80
2023/03/29 05:06:32;;;;;;;;;;;;;;;;;;137667;1272;22545;-84
2023/03/29 05:09:34;;;;;;;;;;;;;;;;;;137146;1272;205996;-85
2023/03/29 05:12:35;;;;;;;;;;;;;;;;;;137041;1272;22483;-84
2023/03/29 05:15:36;;;;;;;;;;;;;;;;;;137387;1272;22517;-83
2023/03/29 05:18:38;;;;;;;;;;;;;;;;;;137083;1272;22489;-83
2023/03/29 05:21:39;;;;;;;;;;;;;;;;;;137563;1272;22541;-82
2023/03/29 05:24:40;;;;;;;;;;;;;;;;;;137338;1272;22465;-82
2023/03/29 05:27:44;;;;;;;;;;;;;;;;;;137276;1268;22516;-82
2023/03/29 05:30:45;;;;;;;;;;;;;;;;;;137495;1272;22951;-81
2023/03/29 05:33:46;;;;;;;;;;;;;;;;;;137448;1272;23065;-82
2023/03/29 05:36:48;;;;;;;;;;;;;;;;;;137648;1272;22501;-81
2023/03/29 05:39:49;;;;;;;;;;;;;;;;;;137397;1272;22490;-81
2023/03/29 05:42:50;;;;;;;;;;;;;;;;;;137331;1272;22532;-81
2023/03/29 05:45:51;;;;;;;;;;;;;;;;;;137680;1272;22288;-81
2023/03/29 05:48:52;;;;;;;;;;;;;;;;;;137716;1272;22305;-81
2023/03/29 05:51:55;;;;;;;;;;;;;;;;;;137144;1272;22529;-80
2023/03/29 05:54:56;;;;;;;;;;;;;;;;;;137740;1272;22281;-77
2023/03/29 05:57:57;;;;;;;;;;;;;;;;;;137689;1272;22324;-80
2023/03/29 06:00:59;;;;;;;;;;;;;;;;;;137752;1272;22285;-80
2023/03/29 06:04:00;;;;;;;;;;;;;;;;;;137684;1268;22278;-79
2023/03/29 06:07:03;;;;;;;;;;;;;;;;;;137644;1272;22393;-78
2023/03/29 06:10:08;;;;;;;;;;;;;;;;;;137656;1272;23302;-81
2023/03/29 06:13:09;;;;;;;;;;;;;;;;;;137656;1272;22672;-82
2023/03/29 06:16:12;;;;;;;;;;;;;;;;;;137640;1272;22320;-81
2023/03/29 06:19:13;;;;;;;;;;;;;;;;;;137567;1272;23384;-81
2023/03/29 06:22:14;;;;;;;;;;;;;;;;;;137670;1272;22345;-81
2023/03/29 06:25:16;;;;;;;;;;;;;;;;;;137671;1272;22331;-81
2023/03/29 06:28:17;;;;;;;;;;;;;;;;;;137671;1261;22319;-81
2023/03/29 06:31:19;;;;;;;;;;;;;;;;;;137658;1272;22924;-80
2023/03/29 06:34:21;;;;;;;;;;;;;;;;;;137685;1272;22340;-80
2023/03/29 06:37:22;;;;;;;;;;;;;;;;;;137708;1272;22424;-79
2023/03/29 06:40:23;;;;;;;;;;;;;;;;;;137503;1268;22482;-79
2023/03/29 06:43:25;;;;;;;;;;;;;;;;;;137044;1272;25921;-80
2023/03/29 06:46:26;;;;;;;;;;;;;;;;;;137677;1272;22576;-80
2023/03/29 06:49:27;;;;;;;;;;;;;;;;;;137594;1272;23065;-81
2023/03/29 06:52:28;;;;;;;;;;;;;;;;;;137422;1272;22556;-81
2023/03/29 06:55:30;;;;;;;;;;;;;;;;;;137687;1272;22321;-79
2023/03/29 06:58:31;;;;;;;;;;;;;;;;;;137270;1272;22485;-81
2023/03/29 07:01:33;;;;;;;;;;;;;;;;;;137285;1272;22499;-82
2023/03/29 07:04:34;;;;;;;;;;;;;;;;;;137663;1272;22475;-82
2023/03/29 07:07:52;;;;;;;;;;;;;;;;;;137681;1272;22306;-81
2023/03/29 07:10:53;;;;;;;;;;;;;;;;;;137216;1272;22481;-81
2023/03/29 07:13:55;;;;;;;;;;;;;;;;;;137335;1272;22968;-81
2023/03/29 07:16:57;;;;;;;;;;;;;;;;;;137479;1268;22511;-80
2023/03/29 07:19:58;;;;;;;;;;;;;;;;;;137146;1272;22898;-78
2023/03/29 07:22:59;;;;;;;;;;;;;;;;;;136866;1272;23379;-79
2023/03/29 07:26:01;;;;;;;;;;;;;;;;;;137650;1272;22285;-78
2023/03/29 07:29:02;;;;;;;;;;;;;;;;;;137059;1272;22546;-81
2023/03/29 07:32:03;;;;;;;;;;;;;;;;;;137291;1272;22504;-81
2023/03/29 07:35:04;;;;;;;;;;;;;;;;;;137687;1272;22360;-80
2023/03/29 07:38:07;;;;;;;;;;;;;;;;;;137571;1272;22335;-81
2023/03/29 07:41:08;;;;;;;;;;;;;;;;;;137709;1272;22318;-82
2023/03/29 07:44:09;;;;;;;;;;;;;;;;;;137720;1272;22334;-81
2023/03/29 07:47:10;;;;;;;;;;;;;;;;;;137682;1268;22273;-81
2023/03/29 07:50:11;;;;;;;;;;;;;;;;;;136876;1272;23009;-80
2023/03/29 07:53:12;;;;;;;;;;;;;;;;;;137701;1272;22312;-81
2023/03/29 07:56:13;;;;;;;;;;;;;;;;;;137679;1272;22759;-81
2023/03/29 07:59:15;;;;;;;;;;;;;;;;;;137660;1272;22330;-81
2023/03/29 08:02:16;;;;;;;;;;;;;;;;;;137680;1272;22318;-81
2023/03/29 08:05:17;;;;;;;;;;;;;;;;;;137612;1272;22387;-81
2023/03/29 08:08:18;;;;;;;;;;;;;;;;;;137591;1272;22330;-82
2023/03/29 08:11:19;;;;;;;;;;;;;;;;;;137618;1272;22440;-82
2023/03/29 08:14:22;;;;;;;;;;;;;;;;;;137575;1272;22341;-82
2023/03/29 08:17:23;;;;;;;;;;;;;;;;;;137640;1272;22286;-83
2023/03/29 08:20:24;;;;;;;;;;;;;;;;;;137416;1272;22505;-80
2023/03/29 08:23:26;;;;;;;;;;;;;;;;;;137626;1269;22757;-79
2023/03/29 08:26:26;;;;;;;;;;;;;;;;;;137645;1260;22275;-81
2023/03/29 08:29:28;;;;;;;;;;;;;;;;;;137636;1272;22327;-81
2023/03/29 08:32:29;;;;;;;;;;;;;;;;;;137665;1272;22334;-82
2023/03/29 08:35:30;;;;;;;;;;;;;;;;;;137654;1272;22787;-82
2023/03/29 08:38:32;;;;;;;;;;;;;;;;;;137656;1272;22276;-81
2023/03/29 08:41:33;;;;;;;;;;;;;;;;;;137644;1272;22783;-80
2023/03/29 08:44:34;;;;;;;;;;;;;;;;;;137621;1272;22313;-81
2023/03/29 08:47:35;;;;;;;;;;;;;;;;;;137640;1272;22893;-83
2023/03/29 08:50:36;;;;;;;;;;;;;;;;;;137644;1272;22734;-81
2023/03/29 08:53:38;;;;;;;;;;;;;;;;;;137646;1272;22340;-78
2023/03/29 08:56:39;;;;;;;;;;;;;;;;;;137631;1272;22305;-79
2023/03/29 08:59:41;;;;;;;;;;;;;;;;;;137617;1272;22323;-81
2023/03/29 09:02:42;;;;;;;;;;;;;;;;;;137668;1272;22321;-80
2023/03/29 09:05:44;;;;;;;;;;;;;;;;;;137634;1272;22415;-80
2023/03/29 09:08:45;;;;;;;;;;;;;;;;;;137652;1272;22299;-80
2023/03/29 09:11:46;;;;;;;;;;;;;;;;;;137652;1272;22336;-80
2023/03/29 09:14:47;;;;;;;;;;;;;;;;;;137655;1272;22323;-80
2023/03/29 09:17:48;;;;;;;;;;;;;;;;;;137660;1272;22452;-80
2023/03/29 09:20:49;;;;;;;;;;;;;;;;;;137656;1269;22843;-80
2023/03/29 09:23:50;;;;;;;;;;;;;;;;;;137650;1272;22338;-80
2023/03/29 09:26:51;;;;;;;;;;;;;;;;;;137630;1272;22302;-80
2023/03/29 09:29:52;;;;;;;;;;;;;;;;;;137592;1272;22365;-80
2023/03/29 09:32:53;;;;;;;;;;;;;;;;;;137660;1272;22322;-81
2023/03/29 09:35:55;;;;;;;;;;;;;;;;;;137654;1272;22393;-80
2023/03/29 09:38:56;;;;;;;;;;;;;;;;;;137664;1272;22306;-80
2023/03/29 09:41:57;;;;;;;;;;;;;;;;;;137659;1272;22328;-81
2023/03/29 09:45:00;;;;;;;;;;;;;;;;;;137690;1272;22338;-83
2023/03/29 09:48:01;;;;;;;;;;;;;;;;;;137360;1272;22857;-79
2023/03/29 09:51:02;;;;;;;;;;;;;;;;;;137686;1272;22366;-79
2023/03/29 09:54:03;;;;;;;;;;;;;;;;;;137699;1272;22263;-79
2023/03/29 09:57:05;;;;;;;;;;;;;;;;;;137373;1272;22490;-80
2023/03/29 10:00:09;;;;;;;;;;;;;;;;;;137695;1272;22265;-81
2023/03/29 10:03:10;;;;;;;;;;;;;;;;;;137658;1272;22334;-79
2023/03/29 10:06:11;;;;;;;;;;;;;;;;;;137705;1269;22811;-81
2023/03/29 10:09:12;;;;;;;;;;;;;;;;;;137705;1272;22293;-81
2023/03/29 10:12:13;;;;;;;;;;;;;;;;;;137694;1272;22328;-81
2023/03/29 10:15:16;;;;;;;;;;;;;;;;;;137656;1272;22344;-80
2023/03/29 10:18:17;;;;;;;;;;;;;;;;;;137648;1272;22787;-81
2023/03/29 10:21:19;;;;;;;;;;;;;;;;;;137720;1263;22277;-80
2023/03/29 10:24:20;;;;;;;;;;;;;;;;;;137646;1272;22306;-81
2023/03/29 10:27:22;;;;;;;;;;;;;;;;;;137723;1272;22285;-79
2023/03/29 10:30:23;;;;;;;;;;;;;;;;;;137689;1272;22365;-79
2023/03/29 10:33:24;;;;;;;;;;;;;;;;;;137681;1272;22366;-79
2023/03/29 10:36:25;;;;;;;;;;;;;;;;;;137716;1272;22396;-78
2023/03/29 10:39:26;;;;;;;;;;;;;;;;;;137685;1269;22308;-79
2023/03/29 10:42:28;;;;;;;;;;;;;;;;;;137683;1272;22309;-79
2023/03/29 10:45:29;;;;;;;;;;;;;;;;;;137677;1272;22327;-79
2023/03/29 10:48:31;;;;;;;;;;;;;;;;;;137689;1272;22479;-81
2023/03/29 10:51:33;;;;;;;;;;;;;;;;;;137651;1272;22311;-79
2023/03/29 10:54:34;;;;;;;;;;;;;;;;;;137656;1272;22350;-79
2023/03/29 10:57:36;;;;;;;;;;;;;;;;;;137621;1272;22267;-79
2023/03/29 11:00:37;;;;;;;;;;;;;;;;;;137697;1272;22373;-79
2023/03/29 11:03:39;;;;;;;;;;;;;;;;;;137667;1272;22351;-78
2023/03/29 11:06:40;;;;;;;;;;;;;;;;;;137668;1272;22506;-79
2023/03/29 11:09:41;;;;;;;;;;;;;;;;;;137688;1272;23224;-79
2023/03/29 11:12:42;;;;;;;;;;;;;;;;;;137761;1272;22343;-79
2023/03/29 11:15:44;;;;;;;;;;;;;;;;;;137477;1272;22495;-78
2023/03/29 11:18:45;;;;;;;;;;;;;;;;;;136882;1272;22495;-79
2023/03/29 11:21:46;;;;;;;;;;;;;;;;;;137665;1272;22334;-80
2023/03/29 11:24:47;;;;;;;;;;;;;;;;;;137640;1272;22292;-79
2023/03/29 11:27:48;;;;;;;;;;;;;;;;;;137657;1272;22269;-78
2023/03/29 11:30:49;;;;;;;;;;;;;;;;;;137566;1272;22676;-79
2023/03/29 11:33:50;;;;;;;;;;;;;;;;;;137629;1272;22325;-79
2023/03/29 11:36:51;;;;;;;;;;;;;;;;;;137041;1272;23010;-79
2023/03/29 11:39:52;;;;;;;;;;;;;;;;;;137681;1272;22274;-83
2023/03/29 11:42:53;;;;;;;;;;;;;;;;;;137679;1272;22988;-80
2023/03/29 11:45:55;;;;;;;;;;;;;;;;;;137669;1272;22343;-77
2023/03/29 11:48:56;;;;;;;;;;;;;;;;;;137654;1272;22325;-78
2023/03/29 11:51:57;;;;;;;;;;;;;;;;;;137700;1267;22298;-80
2023/03/29 11:55:01;;;;;;;;;;;;;;;;;;137616;1272;22509;-80
2023/03/29 11:58:02;;;;;;;;;;;;;;;;;;137695;1272;22762;-79
2023/03/29 12:01:03;;;;;;;;;;;;;;;;;;137700;1272;22311;-80
2023/03/29 12:04:05;;;;;;;;;;;;;;;;;;137657;1272;22440;-79
2023/03/29 12:07:06;;;;;;;;;;;;;;;;;;137638;1272;22780;-79
2023/03/29 12:10:07;;;;;;;;;;;;;;;;;;137632;1272;22709;-80
2023/03/29 12:13:09;;;;;;;;;;;;;;;;;;137598;1272;22292;-79
2023/03/29 12:16:10;;;;;;;;;;;;;;;;;;137574;1272;22684;-79
2023/03/29 12:19:11;;;;;;;;;;;;;;;;;;137629;1272;22276;-79
2023/03/29 12:22:12;;;;;;;;;;;;;;;;;;137605;1272;22395;-78
2023/03/29 12:25:13;;;;;;;;;;;;;;;;;;137617;1272;22337;-80
2023/03/29 12:28:14;;;;;;;;;;;;;;;;;;137571;1272;22320;-79
2023/03/29 12:31:15;;;;;;;;;;;;;;;;;;137581;1272;22291;-80
2023/03/29 12:34:16;;;;;;;;;;;;;;;;;;137608;1272;22317;-80
2023/03/29 12:37:17;;;;;;;;;;;;;;;;;;137593;1272;22441;-78
2023/03/29 12:40:18;;;;;;;;;;;;;;;;;;137666;1272;22301;-79
2023/03/29 12:43:20;;;;;;;;;;;;;;;;;;137607;1272;22312;-78
2023/03/29 12:46:21;;;;;;;;;;;;;;;;;;137666;1272;22319;-80
2023/03/29 12:49:22;;;;;;;;;;;;;;;;;;137660;1272;22917;-80
2023/03/29 12:52:23;;;;;;;;;;;;;;;;;;137658;1272;22400;-80
2023/03/29 12:55:24;;;;;;;;;;;;;;;;;;137655;1272;22370;-82
2023/03/29 12:58:25;;;;;;;;;;;;;;;;;;137655;1272;22933;-82
2023/03/29 13:01:26;;;;;;;;;;;;;;;;;;137584;1272;22332;-80
2023/03/29 13:04:27;;;;;;;;;;;;;;;;;;137636;1272;22329;-80
2023/03/29 13:07:29;;;;;;;;;;;;;;;;;;137633;1272;22416;-81
2023/03/29 13:10:30;;;;;;;;;;;;;;;;;;137642;1272;22297;-82
2023/03/29 13:13:31;;;;;;;;;;;;;;;;;;137616;1272;22710;-78
2023/03/29 13:16:32;;;;;;;;;;;;;;;;;;137644;1272;22402;-79
2023/03/29 13:19:33;;;;;;;;;;;;;;;;;;137669;1270;22299;-80
2023/03/29 13:22:34;;;;;;;;;;;;;;;;;;137643;1272;22314;-81
2023/03/29 13:25:35;;;;;;;;;;;;;;;;;;137642;1257;22317;-80
2023/03/29 13:28:37;;;;;;;;;;;;;;;;;;137648;1272;23275;-81
2023/03/29 13:31:37;;;;;;;;;;;;;;;;;;137635;1272;22340;-81
2023/03/29 13:34:39;;;;;;;;;;;;;;;;;;137668;1272;22345;-82
2023/03/29 13:37:42;;;;;;;;;;;;;;;;;;137703;1269;22311;-81
2023/03/29 13:40:43;;;;;;;;;;;;;;;;;;137700;1272;22277;-82
2023/03/29 13:43:44;;;;;;;;;;;;;;;;;;137177;1272;22495;-80
2023/03/29 13:46:45;;;;;;;;;;;;;;;;;;137370;1272;22493;-82
2023/03/29 13:49:46;;;;;;;;;;;;;;;;;;137457;1272;22567;-81
2023/03/29 13:52:47;;;;;;;;;;;;;;;;;;137704;1272;22348;-83
2023/03/29 13:55:49;;;;;;;;;;;;;;;;;;137316;1272;22479;-82
2023/03/29 13:58:50;;;;;;;;;;;;;;;;;;137680;1272;22309;-83
2023/03/29 14:01:53;;;;;;;;;;;;;;;;;;137721;1272;22289;-82
2023/03/29 14:04:54;;;;;;;;;;;;;;;;;;137419;1272;22569;-81
2023/03/29 14:07:55;;;;;;;;;;;;;;;;;;137651;1272;22529;-83
2023/03/29 14:10:56;;;;;;;;;;;;;;;;;;137584;1272;22470;-83
2023/03/29 14:13:57;;;;;;;;;;;;;;;;;;137405;1272;22505;-81
2023/03/29 14:16:59;;;;;;;;;;;;;;;;;;137676;1272;22341;-83
2023/03/29 14:20:00;;;;;;;;;;;;;;;;;;137683;1272;22335;-82
2023/03/29 14:23:01;;;;;;;;;;;;;;;;;;137703;1272;22344;-82
2023/03/29 14:26:02;;;;;;;;;;;;;;;;;;137695;1272;22252;-81
2023/03/29 14:29:03;;;;;;;;;;;;;;;;;;137693;1272;22619;-83
2023/03/29 14:32:04;;;;;;;;;;;;;;;;;;137717;1272;22283;-81
2023/03/29 14:35:05;;;;;;;;;;;;;;;;;;137393;1272;22511;-82
2023/03/29 14:38:06;;;;;;;;;;;;;;;;;;137677;1272;22520;-82
2023/03/29 14:41:07;;;;;;;;;;;;;;;;;;137639;1272;22930;-81
2023/03/29 14:44:08;;;;;;;;;;;;;;;;;;137201;1272;22866;-83
2023/03/29 14:47:09;;;;;;;;;;;;;;;;;;137135;1272;22541;-85
2023/03/29 14:50:10;;;;;;;;;;;;;;;;;;137726;1272;22493;-84
2023/03/29 14:53:11;;;;;;;;;;;;;;;;;;137257;1272;22520;-84
2023/03/29 14:56:13;;;;;;;;;;;;;;;;;;137418;1270;22501;-84
2023/03/29 14:59:14;;;;;;;;;;;;;;;;;;137675;1272;22526;-82
2023/03/29 15:02:15;;;;;;;;;;;;;;;;;;137344;1269;22563;-81
2023/03/29 15:05:16;;;;;;;;;;;;;;;;;;137712;1272;22430;-81
2023/03/29 15:08:17;;;;;;;;;;;;;;;;;;137698;1272;22891;-83
2023/03/29 15:11:18;;;;;;;;;;;;;;;;;;137596;1272;23129;-83
2023/03/29 15:14:19;;;;;;;;;;;;;;;;;;137262;1272;22496;-82
2023/03/29 15:17:20;;;;;;;;;;;;;;;;;;137404;1272;22542;-83
2023/03/29 15:20:22;;;;;;;;;;;;;;;;;;137633;1272;22498;-83
2023/03/29 15:23:23;;;;;;;;;;;;;;;;;;137273;1272;22538;-82
2023/03/29 15:26:25;;;;;;;;;;;;;;;;;;137511;1272;22563;-83
2023/03/29 15:29:27;;;;;;;;;;;;;;;;;;137689;1272;22999;-81
2023/03/29 15:32:28;;;;;;;;;;;;;;;;;;137104;1272;22526;-83
2023/03/29 15:35:29;;;;;;;;;;;;;;;;;;137023;1272;22492;-81
2023/03/29 15:38:30;;;;;;;;;;;;;;;;;;137433;1272;22560;-84
2023/03/29 15:41:31;;;;;;;;;;;;;;;;;;137003;1272;22562;-85
2023/03/29 15:44:32;;;;;;;;;;;;;;;;;;136901;1272;22501;-84
2023/03/29 15:47:33;;;;;;;;;;;;;;;;;;137474;1272;22522;-86
2023/03/29 15:50:34;;;;;;;;;;;;;;;;;;137183;1272;22525;-84
2023/03/29 15:53:35;;;;;;;;;;;;;;;;;;137115;1272;22501;-84
2023/03/29 15:56:36;;;;;;;;;;;;;;;;;;137485;1272;22526;-85
2023/03/29 15:59:40;;;;;;;;;;;;;;;;;;137298;1272;22525;-84
2023/03/29 16:02:41;;;;;;;;;;;;;;;;;;137013;1272;22689;-85
2023/03/29 16:05:42;;;;;;;;;;;;;;;;;;137243;1272;22447;-86
2023/03/29 16:08:43;;;;;;;;;;;;;;;;;;137417;1272;22534;-84
2023/03/29 16:11:45;;;;;;;;;;;;;;;;;;137046;1272;22516;-84
2023/03/29 16:14:46;;;;;;;;;;;;;;;;;;137100;1272;22561;-84
2023/03/29 16:17:47;;;;;;;;;;;;;;;;;;137735;1272;22496;-84
2023/03/29 16:20:48;;;;;;;;;;;;;;;;;;137269;1260;22565;-83
2023/03/29 16:23:50;;;;;;;;;;;;;;;;;;137249;1260;22531;-83
2023/03/29 16:26:51;;;;;;;;;;;;;;;;;;137694;1272;22495;-83
2023/03/29 16:29:52;;;;;;;;;;;;;;;;;;137192;1272;22498;-83
2023/03/29 16:32:53;;;;;;;;;;;;;;;;;;136828;1266;23503;-82
2023/03/29 16:35:54;;;;;;;;;;;;;;;;;;137555;1272;22372;-83
2023/03/29 16:38:56;;;;;;;;;;;;;;;;;;137250;1272;22538;-83
2023/03/29 16:41:57;;;;;;;;;;;;;;;;;;137342;1272;22515;-84
2023/03/29 16:45:00;;;;;;;;;;;;;;;;;;137429;1272;22506;-85
2023/03/29 16:48:03;;;;;;;;;;;;;;;;;;137448;1272;22508;-84
2023/03/29 16:51:05;;;;;;;;;;;;;;;;;;137398;1272;22552;-85
2023/03/29 16:54:08;;;;;;;;;;;;;;;;;;137219;1272;25249;-85
2023/03/29 16:57:09;;;;;;;;;;;;;;;;;;137629;1272;22506;-83
2023/03/29 17:00:11;;;;;;;;;;;;;;;;;;137167;1272;22604;-82
2023/03/29 17:03:14;;;;;;;;;;;;;;;;;;136994;1272;22544;-83
2023/03/29 17:06:15;;;;;;;;;;;;;;;;;;137710;1272;22546;-82
2023/03/29 17:09:16;;;;;;;;;;;;;;;;;;136954;1272;177313;-82
2023/03/29 17:12:17;;;;;;;;;;;;;;;;;;137079;1272;22515;-82
2023/03/29 17:15:19;;;;;;;;;;;;;;;;;;137508;1272;25688;-83
2023/03/29 17:18:20;;;;;;;;;;;;;;;;;;137410;1272;22530;-82
2023/03/29 17:21:21;;;;;;;;;;;;;;;;;;136981;1272;22564;-83
2023/03/29 17:24:22;;;;;;;;;;;;;;;;;;137267;1272;22537;-85
2023/03/29 17:27:23;;;;;;;;;;;;;;;;;;137563;1269;22844;-84
2023/03/29 17:30:24;;;;;;;;;;;;;;;;;;137194;1272;22518;-84
2023/03/29 17:33:27;;;;;;;;;;;;;;;;;;137137;1266;22546;-83
2023/03/29 17:36:32;;;;;;;;;;;;;;;;;;137592;1272;23319;-83
2023/03/29 17:39:36;;;;;;;;;;;;;;;;;;137000;1272;22551;-83
2023/03/29 17:42:37;;;;;;;;;;;;;;;;;;137030;1272;22539;-84
2023/03/29 17:45:38;;;;;;;;;;;;;;;;;;137565;1272;22506;-85
2023/03/29 17:48:39;;;;;;;;;;;;;;;;;;137219;1272;23113;-84
2023/03/29 17:51:40;;;;;;;;;;;;;;;;;;137025;1272;22523;-84
2023/03/29 17:54:41;;;;;;;;;;;;;;;;;;137542;1266;22549;-85
2023/03/29 17:57:42;;;;;;;;;;;;;;;;;;137320;1272;22514;-85
2023/03/29 18:00:46;;;;;;;;;;;;;;;;;;137019;1272;22512;-82
2023/03/29 18:03:47;;;;;;;;;;;;;;;;;;137288;1272;22523;-82
2023/03/29 18:06:48;;;;;;;;;;;;;;;;;;137565;1272;22476;-83
2023/03/29 18:09:50;;;;;;;;;;;;;;;;;;137093;1272;22597;-83
2023/03/29 18:12:51;;;;;;;;;;;;;;;;;;137277;1272;22520;-84
2023/03/29 18:15:52;;;;;;;;;;;;;;;;;;137675;1272;22557;-83
2023/03/29 18:18:54;;;;;;;;;;;;;;;;;;137159;1272;22949;-83
2023/03/29 18:21:55;;;;;;;;;;;;;;;;;;137245;1272;22594;-78
2023/03/29 18:24:56;;;;;;;;;;;;;;;;;;137672;1272;22561;-80
2023/03/29 18:27:57;;;;;;;;;;;;;;;;;;137126;1269;22978;-82
2023/03/29 18:30:58;;;;;;;;;;;;;;;;;;137155;1272;22520;-82
2023/03/29 18:33:59;;;;;;;;;;;;;;;;;;137630;1272;22967;-83
2023/03/29 18:37:00;;;;;;;;;;;;;;;;;;137333;1272;23063;-82
2023/03/29 18:40:04;;;;;;;;;;;;;;;;;;137502;1272;22488;-81
2023/03/29 18:43:06;;;;;;;;;;;;;;;;;;137208;1272;23581;-83
2023/03/29 18:46:07;;;;;;;;;;;;;;;;;;137673;1272;22505;-82
2023/03/29 18:49:08;;;;;;;;;;;;;;;;;;137138;1272;22813;-81
2023/03/29 18:52:11;;;;;;;;;;;;;;;;;;137113;1272;22508;-82
2023/03/29 18:55:12;;;;;;;;;;;;;;;;;;137627;1272;22546;-80
2023/03/29 18:58:13;;;;;;;;;;;;;;;;;;137061;1272;22944;-82
2023/03/29 19:01:15;;;;;;;;;;;;;;;;;;137184;1272;22491;-82
2023/03/29 19:04:16;;;;;;;;;;;;;;;;;;137537;1272;22501;-84
2023/03/29 19:07:20;;;;;;;;;;;;;;;;;;137350;1272;23021;-82
2023/03/29 19:10:23;;;;;;;;;;;;;;;;;;136977;1272;22499;-83
2023/03/29 19:13:24;;;;;;;;;;;;;;;;;;137443;1272;24739;-83
2023/03/29 19:16:26;;;;;;;;;;;;;;;;;;137641;1272;22516;-83
2023/03/29 19:19:29;;;;;;;;;;;;;;;;;;137085;1272;22505;-82
2023/03/29 19:22:32;;;;;;;;;;;;;;;;;;137187;1272;22541;-83
2023/03/29 19:25:34;;;;;;;;;;;;;;;;;;137770;1272;22542;-82
2023/03/29 19:28:35;;;;;;;;;;;;;;;;;;137022;1272;22499;-82
2023/03/29 19:31:36;;;;;;;;;;;;;;;;;;137694;1272;22333;-82
2023/03/29 19:34:37;;;;;;;;;;;;;;;;;;137591;1272;22519;-85
2023/03/29 19:37:38;;;;;;;;;;;;;;;;;;137280;1272;22570;-84
2023/03/29 19:40:39;;;;;;;;;;;;;;;;;;137108;1272;22593;-81
2023/03/29 19:43:41;;;;;;;;;;;;;;;;;;137463;1272;25427;-82
2023/03/29 19:46:41;;;;;;;;;;;;;;;;;;137446;1272;22560;-82
2023/03/29 19:49:45;;;;;;;;;;;;;;;;;;137156;1272;22566;-83
2023/03/29 19:52:46;;;;;;;;;;;;;;;;;;137379;1272;22518;-82
2023/03/29 19:55:48;;;;;;;;;;;;;;;;;;137633;1272;22909;-83
2023/03/29 19:58:49;;;;;;;;;;;;;;;;;;137658;1272;22496;-83
2023/03/29 20:01:50;;;;;;;;;;;;;;;;;;137357;1272;22907;-81
2023/03/29 20:04:51;;;;;;;;;;;;;;;;;;137584;1272;22524;-84
2023/03/29 20:07:53;;;;;;;;;;;;;;;;;;137128;1272;22494;-84
2023/03/29 20:10:54;;;;;;;;;;;;;;;;;;137437;1272;22518;-78
2023/03/29 20:13:55;;;;;;;;;;;;;;;;;;137744;1272;22320;-83
2023/03/29 20:16:56;;;;;;;;;;;;;;;;;;137664;1272;22327;-84